Time;durP1;ratioP1;P1;durP2;ratioP2;P2;SDS_P1;SDS_P2;PMS_P1;PMS_P2;Temp;Humidity;BMP_temperature;BMP_pressure;BME280_temperature;BME280_humidity;BME280_pressure;Samples;Min_cycle;Max_cycle;Signal;HPM_P1;HPM_P2
2022/04/02 00:01:10;;;;;;;;;;;;;;;24.20;37.37;92675.97;4935679;28;8493;-67
2022/04/02 00:03:37;;;;;;;;;;;;;;;24.20;37.45;92675.97;4926223;29;7205;-67
2022/04/02 00:06:03;;;;;;;;;;;;;;;24.19;37.36;92674.47;4936149;28;7315;-67
2022/04/02 00:08:31;;;;;;;;;;;;;;;24.19;37.88;92674.47;4945314;29;7368;-67
2022/04/02 00:11:00;;;;;;;;;;;;;;;24.19;37.62;92674.47;4933134;28;9215;-67
2022/04/02 00:13:35;;;;;;;;;;;;;;;24.18;37.48;92673.03;4951651;28;9058;-68
2022/04/02 00:16:02;;;;;;;;;;;;;;;24.18;37.92;92673.03;4952686;28;9274;-66
2022/04/02 00:18:31;;;;;;;;;;;;;;;24.17;37.15;92671.53;4932335;29;8797;-67
2022/04/02 00:20:59;;;;;;;;;;;;;;;24.17;37.15;92670.81;4941657;28;8774;-66
2022/04/02 00:23:41;;;;;;;;;;;;;;;24.15;37.38;92670.63;4935967;28;9100;-67
2022/04/02 00:26:13;;;;;;;;;;;;;;;24.15;37.23;92671.34;4940380;28;9105;-66
2022/04/02 00:28:50;;;;;;;;;;;;;;;24.15;37.28;92671.34;4957937;28;9078;-66
2022/04/02 00:31:18;;;;;;;;;;;;;;;24.17;37.36;92670.81;4957884;28;7050;-66
2022/04/02 00:33:49;;;;;;;;;;;;;;;24.17;37.61;92671.53;4933736;29;9209;-66
2022/04/02 00:36:20;;;;;;;;;;;;;;;24.14;37.18;92663.66;4952907;28;9170;-66
2022/04/02 00:38:53;;;;;;;;;;;;;;;24.16;37.22;92672.09;4929667;29;7315;-66
2022/04/02 00:41:29;;;;;;;;;;;;;;;24.13;37.33;92673.91;4954536;28;8933;-66
2022/04/02 00:44:00;;;;;;;;;;;;;;;24.10;37.10;92666.03;4945243;28;8976;-66
2022/04/02 00:46:45;;;;;;;;;;;;;;;24.10;37.47;92661.25;4956495;28;7477;-66
2022/04/02 00:49:14;;;;;;;;;;;;;;;24.11;37.42;92664.75;4938450;28;9451;-66
2022/04/02 00:51:42;;;;;;;;;;;;;;;24.13;37.13;92664.94;4937031;28;9436;-66
2022/04/02 00:54:15;;;;;;;;;;;;;;;24.14;37.13;92669.88;4956726;28;9365;-66
2022/04/02 00:57:01;;;;;;;;;;;;;;;24.12;37.00;92669.69;4942910;28;9352;-66
2022/04/02 00:59:30;;;;;;;;;;;;;;;24.13;37.64;92668.41;4955700;28;8971;-67
2022/04/02 01:02:02;;;;;;;;;;;;;;;24.13;37.35;92670.41;4936881;28;7245;-66
2022/04/02 01:04:28;;;;;;;;;;;;;;;24.15;37.32;92670.63;4939870;28;9006;-66
2022/04/02 01:06:54;;;;;;;;;;;;;;;24.12;37.40;92675.16;4939583;28;7226;-66
2022/04/02 01:09:25;;;;;;;;;;;;;;;24.12;37.41;92669.69;4953871;28;9040;-67
2022/04/02 01:11:55;;;;;;;;;;;;;;;24.11;37.47;92668.22;4954557;28;9401;-66
2022/04/02 01:14:41;;;;;;;;;;;;;;;24.08;37.29;92669.28;4939721;28;9068;-66
2022/04/02 01:17:09;;;;;;;;;;;;;;;24.10;37.44;92677.72;4931154;28;7464;-66
2022/04/02 01:19:41;;;;;;;;;;;;;;;24.09;37.05;92673.53;4924188;28;9048;-66
2022/04/02 01:22:11;;;;;;;;;;;;;;;24.13;36.88;92686.91;4937530;28;7042;-67
2022/04/02 01:24:37;;;;;;;;;;;;;;;24.10;37.07;92677.00;4953963;28;7578;-66
2022/04/02 01:27:04;;;;;;;;;;;;;;;24.10;37.40;92679.75;4930999;29;7275;-66
2022/04/02 01:29:34;;;;;;;;;;;;;;;24.11;37.58;92683.97;4943089;28;7218;-66
2022/04/02 01:32:07;;;;;;;;;;;;;;;24.10;37.19;92680.47;4955987;28;7926;-66
2022/04/02 01:34:48;;;;;;;;;;;;;;;24.10;37.05;92677.00;4924853;29;9081;-67
2022/04/02 01:37:19;;;;;;;;;;;;;;;24.11;37.14;92690.19;4952676;28;7066;-67
2022/04/02 01:39:58;;;;;;;;;;;;;;;24.09;37.36;92673.53;4962721;28;7844;-66
2022/04/02 01:42:26;;;;;;;;;;;;;;;24.12;37.25;92674.47;4937516;28;9109;-66
2022/04/02 01:45:03;;;;;;;;;;;;;;;24.10;37.02;92677.72;4939336;28;9071;-67
2022/04/02 01:47:36;;;;;;;;;;;;;;;24.13;37.08;92675.91;4953187;28;8774;-67
2022/04/02 01:50:06;;;;;;;;;;;;;;;24.10;37.11;92677.72;4942624;28;8586;-67
2022/04/02 01:52:41;;;;;;;;;;;;;;;24.10;37.08;92677.00;4955376;28;7022;-67
2022/04/02 01:55:09;;;;;;;;;;;;;;;24.10;37.07;92680.47;4932171;28;9208;-66
2022/04/02 01:57:50;;;;;;;;;;;;;;;24.14;37.30;92677.41;4955550;28;9077;-67
2022/04/02 02:00:23;;;;;;;;;;;;;;;24.10;36.68;92685.25;4938549;28;7274;-66
2022/04/02 02:03:17;;;;;;;;;;;;;;;24.10;36.64;92677.00;4939624;28;9021;-66
2022/04/02 02:05:48;;;;;;;;;;;;;;;24.06;36.68;92680.09;4936714;28;7241;-67
2022/04/02 02:08:14;;;;;;;;;;;;;;;24.06;36.75;92687.59;4955287;28;7143;-66
2022/04/02 02:10:40;;;;;;;;;;;;;;;24.09;36.84;92684.50;4949302;28;9001;-66
2022/04/02 02:13:12;;;;;;;;;;;;;;;24.07;37.44;92689.81;4951467;28;8738;-67
2022/04/02 02:15:42;;;;;;;;;;;;;;;24.08;37.11;92685.78;4944080;28;8977;-66
2022/04/02 02:18:11;;;;;;;;;;;;;;;24.06;36.57;92685.59;4938067;28;8550;-66
2022/04/02 02:20:37;;;;;;;;;;;;;;;24.06;37.20;92691.06;4950453;28;7450;-66
2022/04/02 02:23:18;;;;;;;;;;;;;;;24.05;37.30;92695.13;4954837;28;8685;-66
2022/04/02 02:26:22;;;;;;;;;;;;;;;24.04;36.61;92693.59;4932632;28;7554;-66
2022/04/02 02:29:08;;;;;;;;;;;;;;;24.06;36.98;92688.34;4933939;28;8987;-66
2022/04/02 02:32:07;;;;;;;;;;;;;;;24.08;36.84;92693.28;4935598;28;6986;-66
2022/04/02 02:37:19;;;;;;;;;;;;;;;24.03;37.01;92694.91;4908403;29;9134;-66
2022/04/02 02:39:58;;;;;;;;;;;;;;;24.03;37.35;92703.13;4897386;29;7215;-66
2022/04/02 02:42:25;;;;;;;;;;;;;;;24.02;36.76;92693.41;4910132;29;8997;-66
2022/04/02 02:45:02;;;;;;;;;;;;;;;24.01;37.02;92697.44;4910492;29;7238;-66
2022/04/02 02:47:58;;;;;;;;;;;;;;;24.03;37.04;92697.63;4898901;29;9102;-66
2022/04/02 02:50:30;;;;;;;;;;;;;;;24.05;36.70;92692.38;4879633;29;9731;-66
2022/04/02 02:53:07;;;;;;;;;;;;;;;24.07;36.60;92700.06;4860058;29;7336;-67
2022/04/02 02:55:44;;;;;;;;;;;;;;;24.06;36.69;92691.06;4861581;29;9129;-67
2022/04/02 02:58:27;;;;;;;;;;;;;;;24.03;36.72;92694.91;4877216;29;7191;-66
2022/04/02 03:01:11;;;;;;;;;;;;;;;24.04;36.78;92693.59;4878369;29;7413;-66
2022/04/02 03:03:40;;;;;;;;;;;;;;;24.05;36.79;92694.38;4860088;29;7255;-67
2022/04/02 03:06:42;;;;;;;;;;;;;;;24.05;36.69;92697.88;4862260;29;7803;-66
2022/04/02 03:09:08;;;;;;;;;;;;;;;24.06;36.70;92704.81;4865821;29;9074;-67
2022/04/02 03:11:36;;;;;;;;;;;;;;;24.04;36.92;92706.59;4826771;29;9142;-67
2022/04/02 03:14:13;;;;;;;;;;;;;;;24.07;36.52;92698.06;4826603;29;9236;-66
2022/04/02 03:16:54;;;;;;;;;;;;;;;24.03;36.54;92703.13;4841824;29;7229;-67
2022/04/02 03:19:31;;;;;;;;;;;;;;;24.02;36.40;92701.66;4818381;29;7152;-67
2022/04/02 03:22:05;;;;;;;;;;;;;;;24.02;36.67;92698.16;4827631;29;9402;-66
2022/04/02 03:24:31;;;;;;;;;;;;;;;24.03;36.68;92696.91;4845881;29;9081;-67
2022/04/02 03:27:00;;;;;;;;;;;;;;;24.01;36.47;92699.44;4841614;29;6925;-66
2022/04/02 03:29:28;;;;;;;;;;;;;;;24.04;36.84;92701.84;4842432;29;7461;-67
2022/04/02 03:31:54;;;;;;;;;;;;;;;24.04;36.95;92701.84;4869471;29;8251;-67
2022/04/02 03:34:21;;;;;;;;;;;;;;;24.03;37.09;92697.63;4880637;29;8827;-67
2022/04/02 03:36:49;;;;;;;;;;;;;;;24.05;36.50;92703.34;4857102;29;7198;-66
2022/04/02 03:39:17;;;;;;;;;;;;;;;24.04;36.18;92707.34;4864133;29;7173;-66
2022/04/02 03:41:43;;;;;;;;;;;;;;;24.03;36.25;92710.63;4872643;29;7488;-66
2022/04/02 03:44:09;;;;;;;;;;;;;;;23.99;36.61;92714.44;4933171;28;7626;-66
2022/04/02 03:49:23;;;;;;;;;;;;;;;24.02;36.68;92718.13;4949489;28;8037;-66
2022/04/02 03:52:11;;;;;;;;;;;;;;;24.04;36.38;92717.56;4932841;28;7066;-66
2022/04/02 03:54:47;;;;;;;;;;;;;;;24.04;35.99;92723.81;4927370;28;8603;-67
2022/04/02 03:57:15;;;;;;;;;;;;;;;24.03;36.51;92724.34;4936205;28;7010;-66
2022/04/02 03:59:48;;;;;;;;;;;;;;;24.04;35.79;92728.56;4936770;28;8799;-66
2022/04/02 04:02:16;;;;;;;;;;;;;;;24.04;36.61;92729.31;4932815;28;7527;-66
2022/04/02 04:04:52;;;;;;;;;;;;;;;24.03;36.51;92733.34;4953854;28;9686;-66
2022/04/02 04:07:19;;;;;;;;;;;;;;;24.04;36.33;92729.31;4953641;29;8828;-66
2022/04/02 04:09:47;;;;;;;;;;;;;;;24.05;36.34;92738.31;4931898;29;9146;-66
2022/04/02 04:12:14;;;;;;;;;;;;;;;24.06;36.54;92737.03;4941407;28;9418;-66
2022/04/02 04:14:42;;;;;;;;;;;;;;;24.02;36.16;92737.34;4939485;29;7302;-67
2022/04/02 04:17:23;;;;;;;;;;;;;;;24.03;36.54;92738.84;4944283;28;7159;-66
2022/04/02 04:19:54;;;;;;;;;;;;;;;24.09;36.56;92738.69;4943362;28;8406;-67
2022/04/02 04:22:20;;;;;;;;;;;;;;;24.07;36.28;92742.00;4950346;29;7070;-66
2022/04/02 04:24:47;;;;;;;;;;;;;;;24.06;36.68;92740.50;4953011;29;8993;-66
2022/04/02 04:27:17;;;;;;;;;;;;;;;24.09;36.34;92739.44;4937062;29;9040;-66
2022/04/02 04:29:45;;;;;;;;;;;;;;;24.09;36.39;92744.94;4944433;29;8977;-66
2022/04/02 04:32:17;;;;;;;;;;;;;;;24.09;36.44;92747.69;4941093;29;9132;-66
2022/04/02 04:35:20;;;;;;;;;;;;;;;24.11;36.42;92744.38;4927465;29;7178;-66
2022/04/02 04:38:03;;;;;;;;;;;;;;;24.10;35.97;92764.91;4936807;29;9167;-67
2022/04/02 04:40:47;;;;;;;;;;;;;;;24.08;35.82;92751.69;4927361;29;7159;-66
2022/04/02 04:43:34;;;;;;;;;;;;;;;24.04;35.74;92758.78;4925313;29;7679;-66
2022/04/02 04:46:04;;;;;;;;;;;;;;;24.07;36.09;92755.72;4920706;29;8222;-67
2022/04/02 04:48:39;;;;;;;;;;;;;;;24.08;35.75;92764.69;4908882;29;9093;-67
2022/04/02 04:51:18;;;;;;;;;;;;;;;24.09;35.38;92763.41;4933917;29;7335;-67
2022/04/02 04:53:55;;;;;;;;;;;;;;;24.09;35.32;92764.16;4910658;29;7349;-67
2022/04/02 04:56:23;;;;;;;;;;;;;;;24.08;35.17;92770.19;4907764;29;8044;-67
2022/04/02 04:59:03;;;;;;;;;;;;;;;24.04;34.57;92772.50;4940538;29;9389;-67
2022/04/02 05:01:29;;;;;;;;;;;;;;;23.97;34.90;92782.91;4925379;29;7259;-67
2022/04/02 05:04:06;;;;;;;;;;;;;;;23.93;35.02;92779.03;4931769;29;8779;-67
2022/04/02 05:06:34;;;;;;;;;;;;;;;23.90;35.53;92782.88;4917122;29;9310;-68
2022/04/02 05:09:01;;;;;;;;;;;;;;;23.90;34.81;92788.34;4909873;29;7034;-67
2022/04/02 05:11:27;;;;;;;;;;;;;;;23.88;35.26;92788.16;4910651;29;9169;-67
2022/04/02 05:13:53;;;;;;;;;;;;;;;23.88;35.24;92788.88;4934250;28;8725;-67
2022/04/02 05:16:19;;;;;;;;;;;;;;;23.87;34.92;92798.41;4945629;28;9216;-67
2022/04/02 05:18:51;;;;;;;;;;;;;;;23.86;34.99;92790.69;4940276;28;8763;-67
2022/04/02 05:21:33;;;;;;;;;;;;;;;23.85;35.56;92806.44;4934999;28;9139;-67
2022/04/02 05:24:00;;;;;;;;;;;;;;;23.85;34.52;92806.44;4955999;28;8769;-67
2022/04/02 05:26:44;;;;;;;;;;;;;;;23.84;35.08;92798.72;4938338;28;8939;-68
2022/04/02 05:29:25;;;;;;;;;;;;;;;23.86;35.27;92799.66;4937209;28;9383;-67
2022/04/02 05:31:51;;;;;;;;;;;;;;;23.85;34.75;92813.94;4936901;28;9092;-67
2022/04/02 05:34:18;;;;;;;;;;;;;;;23.85;35.12;92809.19;4948092;28;9374;-67
2022/04/02 05:36:46;;;;;;;;;;;;;;;23.84;35.18;92820.69;4933989;28;7272;-67
2022/04/02 05:39:43;;;;;;;;;;;;;;;23.82;35.47;92821.22;4951970;28;7263;-67
2022/04/02 05:42:12;;;;;;;;;;;;;;;23.83;34.84;92832.94;4936436;28;8261;-67
2022/04/02 05:45:17;;;;;;;;;;;;;;;23.82;35.31;92823.22;4944770;28;9448;-67
2022/04/02 05:47:51;;;;;;;;;;;;;;;23.82;35.00;92825.97;4911461;29;7252;-67
2022/04/02 05:50:23;;;;;;;;;;;;;;;23.82;35.45;92829.47;4914278;29;9405;-64
2022/04/02 05:52:50;;;;;;;;;;;;;;;23.85;34.96;92838.63;4920624;29;8829;-65
2022/04/02 05:55:17;;;;;;;;;;;;;;;23.85;35.21;92833.16;4903923;29;7085;-65
2022/04/02 05:57:44;;;;;;;;;;;;;;;23.90;35.08;92832.28;4899118;29;9108;-66
2022/04/02 06:00:16;;;;;;;;;;;;;;;23.93;35.06;92834.69;4909023;29;8919;-65
2022/04/02 06:02:44;;;;;;;;;;;;;;;23.96;34.10;92839.13;4916402;29;7273;-66
2022/04/02 06:05:12;;;;;;;;;;;;;;;23.98;34.59;92846.81;4903544;29;7452;-66
2022/04/02 06:07:38;;;;;;;;;;;;;;;23.97;34.67;92840.56;4904605;29;9431;-66
2022/04/02 06:10:09;;;;;;;;;;;;;;;23.97;34.67;92848.81;4915308;29;6978;-66
2022/04/02 06:12:35;;;;;;;;;;;;;;;23.96;34.74;92849.34;4918860;29;9165;-66
2022/04/02 06:15:02;;;;;;;;;;;;;;;23.96;34.90;92852.09;4909166;29;8217;-66
2022/04/02 06:17:34;;;;;;;;;;;;;;;23.99;34.31;92848.25;4907917;29;9046;-66
2022/04/02 06:20:03;;;;;;;;;;;;;;;23.99;34.40;92851.00;4949208;28;7228;-66
2022/04/02 06:22:29;;;;;;;;;;;;;;;24.02;35.03;92863.69;4939875;28;7240;-66
2022/04/02 06:25:05;;;;;;;;;;;;;;;24.03;34.58;92856.94;4940476;28;9043;-66
2022/04/02 06:27:39;;;;;;;;;;;;;;;24.04;34.44;92861.13;4953260;28;9614;-66
2022/04/02 06:30:10;;;;;;;;;;;;;;;24.05;34.42;92876.38;4940984;28;9351;-66
2022/04/02 06:32:47;;;;;;;;;;;;;;;24.06;34.94;92866.09;4937029;28;7241;-66
2022/04/02 06:35:13;;;;;;;;;;;;;;;24.08;34.57;92871.78;4952360;28;9108;-66
2022/04/02 06:37:50;;;;;;;;;;;;;;;24.07;34.57;92870.34;4933898;28;9079;-67
2022/04/02 06:40:35;;;;;;;;;;;;;;;24.08;34.55;92872.53;4922954;28;9885;-66
2022/04/02 06:43:11;;;;;;;;;;;;;;;24.09;34.68;92876.78;4936736;28;7063;-66
2022/04/02 06:45:39;;;;;;;;;;;;;;;24.09;34.72;92874.03;4942687;28;9061;-66
2022/04/02 06:48:06;;;;;;;;;;;;;;;24.10;34.72;92885.75;4930016;28;7275;-67
2022/04/02 06:50:54;;;;;;;;;;;;;;;24.08;34.84;92891.78;4934852;28;9519;-67
2022/04/02 06:53:22;;;;;;;;;;;;;;;24.07;34.66;92879.31;4934619;28;9016;-67
2022/04/02 06:55:59;;;;;;;;;;;;;;;24.08;36.32;92889.03;4932793;28;9694;-66
2022/04/02 06:58:38;;;;;;;;;;;;;;;24.10;37.37;92888.50;4935503;28;8356;-66
2022/04/02 07:01:07;;;;;;;;;;;;;;;24.12;35.25;92888.69;4935753;28;7323;-66
2022/04/02 07:03:38;;;;;;;;;;;;;;;24.13;44.20;92896.41;4935434;28;7246;-68
2022/04/02 07:06:34;;;;;;;;;;;;;;;24.16;39.33;92903.56;4952127;28;7228;-67
2022/04/02 07:09:00;;;;;;;;;;;;;;;24.16;36.75;92900.84;4897837;29;9163;-67
2022/04/02 07:11:26;;;;;;;;;;;;;;;24.19;36.51;92904.50;4897868;29;7166;-67
2022/04/02 07:13:52;;;;;;;;;;;;;;;24.18;36.11;92911.28;4909539;29;8648;-68
2022/04/02 07:16:19;;;;;;;;;;;;;;;24.18;36.56;92911.28;4894348;29;10091;-66
2022/04/02 07:18:48;;;;;;;;;;;;;;;24.18;36.07;92923.00;4905337;29;9099;-68
2022/04/02 07:21:16;;;;;;;;;;;;;;;24.17;35.78;92913.28;4888751;29;7186;-67
2022/04/02 07:23:47;;;;;;;;;;;;;;;24.19;37.10;92923.72;4894396;29;8826;-66
2022/04/02 07:26:17;;;;;;;;;;;;;;;24.17;36.82;92923.53;4903534;29;7728;-66
2022/04/02 07:28:47;;;;;;;;;;;;;;;24.21;37.43;92924.66;4905514;29;7674;-67
2022/04/02 07:31:14;;;;;;;;;;;;;;;24.25;36.51;92933.31;4907246;29;9098;-67
2022/04/02 07:33:40;;;;;;;;;;;;;;;24.23;36.28;92927.59;4906378;29;7523;-67
2022/04/02 07:36:26;;;;;;;;;;;;;;;24.22;36.05;92937.13;4910062;29;6975;-67
2022/04/02 07:39:16;;;;;;;;;;;;;;;24.22;36.16;92936.41;4906796;29;9123;-67
2022/04/02 07:42:21;;;;;;;;;;;;;;;24.21;36.33;92937.66;4901195;29;7615;-67
2022/04/02 07:45:16;;;;;;;;;;;;;;;24.22;36.39;92945.38;4892380;28;7289;-67
2022/04/02 07:47:53;;;;;;;;;;;;;;;24.21;36.61;92954.13;4950836;28;9231;-68
2022/04/02 07:50:27;;;;;;;;;;;;;;;24.23;36.80;92957.13;4948062;28;7935;-68
2022/04/02 07:53:19;;;;;;;;;;;;;;;24.22;36.19;92963.88;4948974;28;7312;-68
2022/04/02 07:55:57;;;;;;;;;;;;;;;24.21;36.42;92965.88;4950096;28;7224;-67
2022/04/02 07:58:43;;;;;;;;;;;;;;;24.23;35.96;92968.09;4941362;28;7773;-68
2022/04/02 08:01:18;;;;;;;;;;;;;;;24.23;36.42;92968.09;4931112;28;9450;-68
2022/04/02 08:03:55;;;;;;;;;;;;;;;24.21;35.90;92974.13;4950252;28;9206;-68
2022/04/02 08:06:59;;;;;;;;;;;;;;;24.20;36.31;92972.66;4933858;29;7898;-69
2022/04/02 08:09:28;;;;;;;;;;;;;;;24.21;36.56;92990.59;4857673;29;8719;-69
2022/04/02 08:11:59;;;;;;;;;;;;;;;24.18;36.61;92980.69;4855977;29;7209;-69
2022/04/02 08:14:30;;;;;;;;;;;;;;;24.19;36.78;92984.91;4858818;29;9073;-69
2022/04/02 08:16:57;;;;;;;;;;;;;;;24.21;36.50;92985.09;4855921;29;8645;-69
2022/04/02 08:19:24;;;;;;;;;;;;;;;24.19;36.46;92990.41;4852252;29;7272;-69
2022/04/02 08:21:52;;;;;;;;;;;;;;;24.24;36.46;92995.03;4868851;29;7425;-69
2022/04/02 08:24:18;;;;;;;;;;;;;;;24.22;37.13;92992.09;4858681;29;7212;-69
2022/04/02 08:27:00;;;;;;;;;;;;;;;24.26;36.42;92995.22;4873376;29;7868;-69
2022/04/02 08:29:55;;;;;;;;;;;;;;;24.25;36.99;93007.47;4858558;29;9008;-69
2022/04/02 08:33:04;;;;;;;;;;;;;;;24.28;36.83;93005.69;4865315;29;7260;-68
2022/04/02 08:35:53;;;;;;;;;;;;;;;24.27;37.09;93013.19;4856888;29;7063;-69
2022/04/02 08:38:36;;;;;;;;;;;;;;;24.29;36.63;93016.16;4859566;29;9183;-68
2022/04/02 08:41:30;;;;;;;;;;;;;;;24.28;36.96;93019.41;4859789;29;9272;-69
2022/04/02 08:44:18;;;;;;;;;;;;;;;24.27;36.94;93021.41;4921726;28;7502;-68
2022/04/02 08:47:22;;;;;;;;;;;;;;;24.24;36.54;93022.50;4944366;28;7070;-69
2022/04/02 08:50:10;;;;;;;;;;;;;;;24.22;36.71;93029.81;4939345;28;9332;-69
2022/04/02 08:52:53;;;;;;;;;;;;;;;24.24;36.62;93033.50;4938942;28;7924;-68
2022/04/02 08:55:49;;;;;;;;;;;;;;;24.26;36.75;93039.19;4933929;28;9102;-68
2022/04/02 08:58:44;;;;;;;;;;;;;;;24.24;36.61;93036.25;4938023;28;7355;-67
2022/04/02 09:01:25;;;;;;;;;;;;;;;24.23;36.39;93045.75;4946399;28;9244;-68
2022/04/02 09:07:23;;;;;;;;;;;;;;;24.26;35.96;93046.69;4952887;28;7278;-69
2022/04/02 09:10:31;;;;;;;;;;;;;;;24.27;36.63;93050.94;4946755;28;9096;-69
2022/04/02 09:13:25;;;;;;;;;;;;;;;24.28;36.32;93061.38;4935080;28;8705;-68
2022/04/02 09:16:04;;;;;;;;;;;;;;;24.29;36.56;93051.88;4952700;28;7690;-68
2022/04/02 09:18:52;;;;;;;;;;;;;;;24.28;36.90;93055.88;4949469;28;8311;-68
2022/04/02 09:21:40;;;;;;;;;;;;;;;24.24;36.57;93055.47;4937293;28;7116;-69
2022/04/02 09:24:57;;;;;;;;;;;;;;;24.28;36.77;93058.63;4926344;28;7256;-66
2022/04/02 09:27:32;;;;;;;;;;;;;;;24.32;36.70;93072.78;4899354;29;7045;-67
2022/04/02 09:30:04;;;;;;;;;;;;;;;24.29;36.81;93070.38;4900896;29;8769;-67
2022/04/02 09:32:30;;;;;;;;;;;;;;;24.35;37.10;93065.47;4896787;29;7998;-67
2022/04/02 09:35:14;;;;;;;;;;;;;;;24.37;36.84;93074.66;4901148;29;7103;-67
2022/04/02 09:38:01;;;;;;;;;;;;;;;24.39;36.53;93076.88;4950356;23;7252;-86
2022/04/02 09:40:42;;;;;;;;;;;;;;;24.37;37.42;93074.66;4932220;28;8664;-86
2022/04/02 09:43:27;;;;;;;;;;;;;;;24.37;36.77;93082.91;4932836;28;8737;-87
2022/04/02 09:46:26;;;;;;;;;;;;;;;24.34;36.54;93075.72;4929995;28;9011;-87
2022/04/02 09:49:00;;;;;;;;;;;;;;;24.41;36.94;93088.06;5068787;23;7330;-87
2022/04/02 09:51:37;;;;;;;;;;;;;;;24.42;36.65;93089.56;4955866;28;6971;-88
2022/04/02 09:54:43;;;;;;;;;;;;;;;24.44;36.83;93095.25;4952238;28;9058;-88
2022/04/02 09:57:26;;;;;;;;;;;;;;;24.46;36.31;93093.44;4888623;29;9144;-89
2022/04/02 10:00:00;;;;;;;;;;;;;;;24.50;36.68;93093.09;4891035;29;8727;-89
2022/04/02 10:03:05;;;;;;;;;;;;;;;24.51;36.71;93098.06;4893642;29;7319;-89
2022/04/02 10:05:54;;;;;;;;;;;;;;;24.46;36.64;93095.44;4804024;29;8759;-87
2022/04/02 10:08:29;;;;;;;;;;;;;;;24.52;36.48;93101.56;4753172;30;9077;-88
2022/04/02 10:11:00;;;;;;;;;;;;;;;24.52;36.69;93096.81;4764345;30;7261;-87
2022/04/02 10:13:33;;;;;;;;;;;;;;;24.50;36.83;93104.84;4763264;30;9150;-87
2022/04/02 10:16:00;;;;;;;;;;;;;;;24.52;36.47;93101.56;4749537;30;8748;-89
2022/04/02 10:18:33;;;;;;;;;;;;;;;24.50;36.91;93113.09;4760452;30;7085;-88
2022/04/02 10:21:07;;;;;;;;;;;;;;;24.50;36.31;93110.34;4756850;30;6857;-88
2022/04/02 10:23:54;;;;;;;;;;;;;;;24.48;36.46;93112.91;4765110;30;9014;-88
2022/04/02 10:26:24;;;;;;;;;;;;;;;24.45;36.80;93113.94;4763766;30;7273;-88
2022/04/02 10:28:52;;;;;;;;;;;;;;;24.45;36.98;93122.19;4745341;30;7335;-87
2022/04/02 10:31:53;;;;;;;;;;;;;;;24.48;36.40;93123.16;4760275;30;8772;-88
2022/04/02 10:34:37;;;;;;;;;;;;;;;24.47;37.10;93121.66;4788238;29;7019;-87
2022/04/02 10:37:14;;;;;;;;;;;;;;;24.46;37.32;93131.94;4811051;29;7995;-87
2022/04/02 10:39:56;;;;;;;;;;;;;;;24.47;37.41;93127.16;4849180;29;8730;-88
2022/04/02 10:42:34;;;;;;;;;;;;;;;24.46;37.12;93136.69;4889599;29;9036;-88
2022/04/02 10:45:10;;;;;;;;;;;;;;;24.48;37.27;93134.88;4919385;28;9139;-88
2022/04/02 10:47:44;;;;;;;;;;;;;;;24.48;37.38;93136.88;4940102;28;9205;-88
2022/04/02 10:50:11;;;;;;;;;;;;;;;24.44;37.03;93137.22;4949407;28;9010;-88
2022/04/02 10:52:38;;;;;;;;;;;;;;;24.46;37.21;93137.44;4935362;28;8793;-88
2022/04/02 10:55:06;;;;;;;;;;;;;;;24.52;37.36;93145.53;4931434;28;9098;-87
2022/04/02 10:57:34;;;;;;;;;;;;;;;24.48;37.12;93140.38;4940601;28;9020;-88
2022/04/02 11:00:07;;;;;;;;;;;;;;;24.53;36.98;93152.53;4953570;28;8826;-88
2022/04/02 11:02:57;;;;;;;;;;;;;;;24.52;37.32;93151.78;4942531;28;7238;-88
2022/04/02 11:05:33;;;;;;;;;;;;;;;24.50;37.25;93148.09;4956573;28;7129;-89
2022/04/02 11:08:05;;;;;;;;;;;;;;;24.51;37.35;93155.78;4947328;28;9112;-88
2022/04/02 11:10:34;;;;;;;;;;;;;;;24.50;37.29;93159.81;4948185;28;8802;-89
2022/04/02 11:13:05;;;;;;;;;;;;;;;24.52;37.46;93157.28;4947424;28;6996;-88
2022/04/02 11:15:41;;;;;;;;;;;;;;;24.48;37.27;93156.88;4947334;28;9005;-88
2022/04/02 11:18:21;;;;;;;;;;;;;;;24.46;36.80;93164.91;4951527;28;9087;-89
2022/04/02 11:21:01;;;;;;;;;;;;;;;24.43;37.06;93165.97;4927625;28;9027;-88
2022/04/02 11:23:51;;;;;;;;;;;;;;;24.50;36.75;93170.81;4948516;28;7173;-88
2022/04/02 11:26:20;;;;;;;;;;;;;;;24.44;36.65;93161.97;4926524;28;8628;-87
2022/04/02 11:28:53;;;;;;;;;;;;;;;24.48;36.53;93175.38;4936944;28;9300;-88
2022/04/02 11:31:30;;;;;;;;;;;;;;;24.43;36.73;93165.97;4947465;28;6876;-88
2022/04/02 11:33:59;;;;;;;;;;;;;;;24.45;36.83;93170.91;4929534;28;8751;-88
2022/04/02 11:36:48;;;;;;;;;;;;;;;24.47;36.56;93187.63;4942617;28;8804;-87
2022/04/02 11:39:38;;;;;;;;;;;;;;;24.47;36.65;93179.38;4932830;28;9368;-89
2022/04/02 11:42:07;;;;;;;;;;;;;;;24.45;36.56;93184.66;4939520;28;9034;-88
2022/04/02 11:44:39;;;;;;;;;;;;;;;24.44;37.03;93183.19;4934176;28;7352;-88
2022/04/02 11:47:07;;;;;;;;;;;;;;;24.40;36.44;93172.50;4940199;28;9137;-87
2022/04/02 11:49:39;;;;;;;;;;;;;;;24.45;36.74;93179.91;4947569;28;9185;-88
2022/04/02 11:52:13;;;;;;;;;;;;;;;24.46;36.58;93172.41;4949915;28;7604;-88
2022/04/02 11:54:59;;;;;;;;;;;;;;;24.52;36.91;93179.25;4945081;28;9098;-89
2022/04/02 11:57:30;;;;;;;;;;;;;;;24.54;36.38;93182.22;4936998;28;6946;-88
2022/04/02 12:00:05;;;;;;;;;;;;;;;24.56;36.85;93189.94;4926850;28;9027;-89
2022/04/02 12:02:42;;;;;;;;;;;;;;;24.52;36.72;93190.25;4940136;28;7537;-88
2022/04/02 12:05:12;;;;;;;;;;;;;;;24.52;36.68;93186.78;4942701;28;7039;-89
2022/04/02 12:07:45;;;;;;;;;;;;;;;24.56;36.85;93198.91;4935138;29;9349;-89
2022/04/02 12:10:23;;;;;;;;;;;;;;;24.54;36.30;93197.97;4950426;29;7026;-89
2022/04/02 12:12:54;;;;;;;;;;;;;;;24.58;36.62;93193.63;4950785;28;9037;-89
2022/04/02 12:15:25;;;;;;;;;;;;;;;24.58;36.62;93215.63;4937977;28;9301;-91
2022/04/02 12:18:01;;;;;;;;;;;;;;;24.57;36.81;93214.16;4939096;28;7635;-89
2022/04/02 12:20:50;;;;;;;;;;;;;;;24.59;36.60;93221.88;4956742;28;9099;-90
2022/04/02 12:23:18;;;;;;;;;;;;;;;24.57;36.96;93222.41;4937240;28;8808;-89
2022/04/02 12:25:59;;;;;;;;;;;;;;;24.57;36.81;93230.66;4949991;28;9441;-88
2022/04/02 12:28:28;;;;;;;;;;;;;;;24.53;36.92;93229.50;4949095;28;9115;-89
2022/04/02 12:31:08;;;;;;;;;;;;;;;24.55;36.53;93229.69;4958909;28;9300;-89
2022/04/02 12:33:37;;;;;;;;;;;;;;;24.53;36.61;93232.97;4964072;28;8738;-89
2022/04/02 12:36:08;;;;;;;;;;;;;;;24.53;36.81;93243.22;4942651;28;8634;-87
2022/04/02 12:38:37;;;;;;;;;;;;;;;24.51;36.34;93243.75;4935361;28;9024;-88
2022/04/02 12:41:23;;;;;;;;;;;;;;;24.49;36.87;93245.56;4944984;28;8692;-88
2022/04/02 12:43:50;;;;;;;;;;;;;;;24.53;37.26;93251.47;4940966;28;9014;-88
2022/04/02 12:46:27;;;;;;;;;;;;;;;24.46;37.18;93252.13;4956054;28;6860;-87
2022/04/02 12:48:54;;;;;;;;;;;;;;;24.53;37.17;93268.69;4940389;28;9089;-88
2022/04/02 12:51:23;;;;;;;;;;;;;;;24.47;37.38;93259.81;4953346;28;7239;-88
2022/04/02 12:54:01;;;;;;;;;;;;;;;24.51;37.17;93270.50;4933356;28;9034;-88
2022/04/02 12:56:33;;;;;;;;;;;;;;;24.53;37.50;93267.97;4939690;28;8651;-88
2022/04/02 12:59:00;;;;;;;;;;;;;;;24.53;37.21;93268.69;4950580;28;9063;-86
2022/04/02 13:01:34;;;;;;;;;;;;;;;24.52;37.40;93274.72;4956244;28;7067;-88
2022/04/02 13:04:11;;;;;;;;;;;;;;;24.49;37.70;93273.78;4937966;28;6875;-87
2022/04/02 13:06:44;;;;;;;;;;;;;;;24.49;37.24;93287.53;4924193;28;9112;-88
2022/04/02 13:09:22;;;;;;;;;;;;;;;24.49;37.57;93279.28;4938395;28;7284;-88
2022/04/02 13:11:59;;;;;;;;;;;;;;;24.49;37.83;93289.56;4938630;28;9230;-89
2022/04/02 13:14:50;;;;;;;;;;;;;;;24.46;37.59;93285.84;4953697;28;9080;-88
2022/04/02 13:17:21;;;;;;;;;;;;;;;24.48;37.38;93288.81;4941229;28;9303;-88
2022/04/02 13:22:44;;;;;;;;;;;;;;;24.44;37.94;93304.13;4948508;28;8662;-88
2022/04/02 13:25:15;;;;;;;;;;;;;;;24.47;37.98;93306.56;4938543;28;8769;-89
2022/04/02 13:27:48;;;;;;;;;;;;;;;24.46;37.99;93296.84;4945216;28;9072;-87
2022/04/02 13:30:18;;;;;;;;;;;;;;;24.39;37.80;93291.97;4937991;28;7205;-88
2022/04/02 13:33:04;;;;;;;;;;;;;;;24.43;37.80;93303.38;4953390;28;9106;-88
2022/04/02 13:35:54;;;;;;;;;;;;;;;24.38;37.46;93295.97;4953237;28;9009;-88
2022/04/02 13:38:42;;;;;;;;;;;;;;;24.47;37.68;93312.03;4949829;28;9085;-88
2022/04/02 13:41:15;;;;;;;;;;;;;;;24.43;38.03;93300.63;4947535;28;9009;-89
2022/04/02 13:43:58;;;;;;;;;;;;;;;24.52;37.75;93324.94;4951374;28;8691;-88
2022/04/02 13:46:28;;;;;;;;;;;;;;;24.49;38.19;93317.75;4961405;28;9106;-88
2022/04/02 13:48:58;;;;;;;;;;;;;;;24.50;37.82;93319.25;4928702;29;9101;-88
2022/04/02 13:51:33;;;;;;;;;;;;;;;24.50;37.82;93316.50;4945343;28;9088;-90
2022/04/02 13:54:04;;;;;;;;;;;;;;;24.49;37.83;93330.78;4955031;28;7042;-88